Time;durP1;ratioP1;P1;durP2;ratioP2;P2;SDS_P1;SDS_P2;PMS_P1;PMS_P2;Temp;Humidity;BMP_temperature;BMP_pressure;BME280_temperature;BME280_humidity;BME280_pressure;Samples;Min_cycle;Max_cycle;Signal;HPM_P1;HPM_P2
2021/04/15 00:01:36;;;;;;;2.88;0.40;;;2.80;99.90;;;;;;5088803;28;20043;-77
2021/04/15 00:04:04;;;;;;;3.70;0.75;;;2.90;99.90;;;;;;5088824;28;20126;-77
2021/04/15 00:06:31;;;;;;;2.97;0.60;;;2.90;99.90;;;;;;5076295;28;20044;-78
2021/04/15 00:08:59;;;;;;;1.60;0.50;;;2.90;99.90;;;;;;5088478;28;20047;-77
2021/04/15 00:11:31;;;;;;;1.73;0.40;;;2.90;99.90;;;;;;5088388;28;20027;-77
2021/04/15 00:13:58;;;;;;;1.25;0.30;;;2.90;99.90;;;;;;5088612;28;20032;-77
2021/04/15 00:16:26;;;;;;;3.50;0.30;;;2.90;99.90;;;;;;5106506;28;20028;-78
2021/04/15 00:18:52;;;;;;;3.85;0.88;;;2.90;99.90;;;;;;5106485;28;20028;-77
2021/04/15 00:21:18;;;;;;;2.95;0.45;;;2.90;99.90;;;;;;5071635;28;20057;-77
2021/04/15 00:23:44;;;;;;;3.88;0.40;;;2.90;99.90;;;;;;5088420;28;20079;-78
2021/04/15 00:26:11;;;;;;;3.95;0.40;;;2.90;99.90;;;;;;5106352;28;20087;-77
2021/04/15 00:28:38;;;;;;;2.28;0.40;;;2.90;99.90;;;;;;5088138;28;20035;-77
2021/04/15 00:31:04;;;;;;;5.63;0.60;;;2.90;99.90;;;;;;5106528;28;20088;-77
2021/04/15 00:33:30;;;;;;;2.78;0.40;;;2.90;99.90;;;;;;5088265;28;20024;-78
2021/04/15 00:35:55;;;;;;;5.35;0.45;;;2.90;99.90;;;;;;5106169;28;20107;-78
2021/04/15 00:38:23;;;;;;;2.47;0.40;;;2.90;99.90;;;;;;5106155;28;20016;-78
2021/04/15 00:40:50;;;;;;;1.98;0.30;;;2.90;99.90;;;;;;5106154;28;20388;-77
2021/04/15 00:43:20;;;;;;;2.75;0.40;;;2.90;99.90;;;;;;5087871;28;20035;-77
2021/04/15 00:45:47;;;;;;;2.40;0.38;;;2.90;99.90;;;;;;5088071;28;20066;-77
2021/04/15 00:48:33;;;;;;;2.92;0.30;;;2.90;99.90;;;;;;5087880;28;20077;-77
2021/04/15 00:51:11;;;;;;;2.17;0.40;;;2.90;99.90;;;;;;5106422;28;20032;-77
2021/04/15 00:53:51;;;;;;;1.88;0.40;;;2.90;99.90;;;;;;5105948;28;20084;-77
2021/04/15 00:56:17;;;;;;;3.10;0.40;;;2.90;99.90;;;;;;5105891;28;20044;-77
2021/04/15 00:58:44;;;;;;;1.30;0.22;;;2.90;99.90;;;;;;5069797;28;20126;-77
2021/04/15 01:01:10;;;;;;;2.35;0.20;;;2.90;99.90;;;;;;5106037;28;20028;-78
2021/04/15 01:03:37;;;;;;;1.52;0.50;;;2.90;99.90;;;;;;5105891;28;20040;-78
2021/04/15 01:06:06;;;;;;;1.63;0.20;;;2.90;99.90;;;;;;5087292;28;20085;-77
2021/04/15 01:08:32;;;;;;;1.42;0.20;;;2.80;99.90;;;;;;5105904;28;20035;-77
2021/04/15 01:11:16;;;;;;;0.60;0.20;;;2.90;99.90;;;;;;5105862;28;20043;-77
2021/04/15 01:14:05;;;;;;;1.35;0.20;;;2.90;99.90;;;;;;5105769;28;20036;-77
2021/04/15 01:17:01;;;;;;;1.42;0.20;;;2.90;99.90;;;;;;5105912;28;20040;-77
2021/04/15 01:20:07;;;;;;;0.60;0.20;;;3.00;99.90;;;;;;5105647;28;20095;-77
2021/04/15 01:23:01;;;;;;;1.13;0.20;;;3.00;99.90;;;;;;5087710;28;20032;-77
2021/04/15 01:25:49;;;;;;;2.58;0.35;;;3.00;99.90;;;;;;5087745;28;20051;-77
2021/04/15 01:28:20;;;;;;;0.40;0.13;;;3.00;99.90;;;;;;5087488;28;20139;-77
2021/04/15 01:31:12;;;;;;;1.75;0.20;;;3.00;99.90;;;;;;5087602;28;20084;-77
2021/04/15 01:33:43;;;;;;;1.67;0.10;;;3.10;99.90;;;;;;5087618;28;20040;-78
2021/04/15 01:36:46;;;;;;;0.43;0.13;;;3.00;99.90;;;;;;5105572;28;20104;-77
2021/04/15 01:39:17;;;;;;;1.33;0.20;;;3.00;99.90;;;;;;5085646;28;20040;-77
2021/04/15 01:41:49;;;;;;;;;;;3.10;99.90;;;;;;5088007;28;20051;-78
2021/04/15 01:44:24;;;;;;;1.17;0.10;;;3.10;99.90;;;;;;5087582;28;19914;-78
2021/04/15 01:46:56;;;;;;;1.10;0.20;;;3.10;99.90;;;;;;5087688;28;20028;-77
2021/04/15 01:49:23;;;;;;;0.32;0.10;;;3.10;99.90;;;;;;5087358;28;20050;-77
2021/04/15 01:51:52;;;;;;;2.25;0.20;;;3.10;99.90;;;;;;5105604;28;20027;-78
2021/04/15 01:54:31;;;;;;;0.70;0.10;;;3.10;99.90;;;;;;5087533;28;20551;-77
2021/04/15 01:57:05;;;;;;;1.83;0.20;;;3.10;99.90;;;;;;5070534;28;20043;-77
2021/04/15 01:59:50;;;;;;;1.10;0.10;;;3.10;99.90;;;;;;5105224;28;20038;-77
2021/04/15 02:02:30;;;;;;;0.40;0.10;;;3.10;99.90;;;;;;5087452;28;20119;-77
2021/04/15 02:05:16;;;;;;;3.35;0.20;;;3.10;99.90;;;;;;5105238;28;20035;-78
2021/04/15 02:07:50;;;;;;;0.35;0.10;;;3.10;99.90;;;;;;5022610;28;20053;-78
2021/04/15 02:10:17;;;;;;;1.02;0.20;;;3.10;99.90;;;;;;5024603;28;20053;-78
2021/04/15 02:12:49;;;;;;;0.50;0.10;;;3.10;99.90;;;;;;5026691;28;20050;-78
2021/04/15 02:15:41;;;;;;;1.30;0.10;;;3.10;99.90;;;;;;5026239;28;20029;-78
2021/04/15 02:18:07;;;;;;;1.42;0.10;;;3.10;99.90;;;;;;5026402;28;20429;-78
2021/04/15 02:20:33;;;;;;;1.08;0.10;;;3.20;99.90;;;;;;5009676;28;20029;-78
2021/04/15 02:23:11;;;;;;;0.70;0.10;;;3.20;99.90;;;;;;5026440;28;20034;-77
2021/04/15 02:25:55;;;;;;;1.95;0.10;;;3.10;99.90;;;;;;5009624;28;20034;-77
2021/04/15 02:28:23;;;;;;;0.47;0.10;;;3.10;99.90;;;;;;4993533;28;20049;-77
2021/04/15 02:31:10;;;;;;;0.77;0.10;;;3.10;99.90;;;;;;4993148;28;20030;-77
2021/04/15 02:33:47;;;;;;;0.77;0.10;;;3.10;99.90;;;;;;4993455;28;20041;-78
2021/04/15 02:36:14;;;;;;;1.75;0.10;;;3.20;99.90;;;;;;5025877;28;20128;-77
2021/04/15 02:38:50;;;;;;;0.63;0.10;;;3.10;99.90;;;;;;5025990;28;20045;-78
2021/04/15 02:41:23;;;;;;;1.75;0.10;;;3.10;99.90;;;;;;5026195;28;20038;-78
2021/04/15 02:43:55;;;;;;;0.30;0.10;;;3.00;99.90;;;;;;5034979;28;20067;-77
2021/04/15 02:46:26;;;;;;;1.20;0.10;;;3.00;99.90;;;;;;5090226;28;20028;-78
2021/04/15 02:48:56;;;;;;;0.30;0.10;;;3.00;99.90;;;;;;5073441;28;20032;-78
2021/04/15 02:51:49;;;;;;;0.30;0.10;;;3.00;99.90;;;;;;5090316;28;20036;-78
2021/04/15 02:54:23;;;;;;;0.50;0.10;;;3.00;99.90;;;;;;5108189;28;20047;-78
2021/04/15 02:56:55;;;;;;;0.85;0.10;;;3.00;99.90;;;;;;5108041;28;20097;-78
2021/04/15 02:59:28;;;;;;;0.60;0.10;;;3.00;99.90;;;;;;5073078;28;20028;-77
2021/04/15 03:02:01;;;;;;;0.30;0.10;;;3.00;99.90;;;;;;5089757;28;20039;-78
2021/04/15 03:04:27;;;;;;;1.40;0.17;;;3.00;99.90;;;;;;5089800;28;20081;-78
2021/04/15 03:06:57;;;;;;;1.85;0.45;;;3.00;99.90;;;;;;5107502;28;20044;-78
2021/04/15 03:09:25;;;;;;;0.32;0.10;;;3.00;99.90;;;;;;5089789;28;20051;-78
2021/04/15 03:11:55;;;;;;;1.08;0.20;;;3.00;99.90;;;;;;5107793;28;20451;-78
2021/04/15 03:14:55;;;;;;;1.30;0.20;;;3.00;99.90;;;;;;5107957;28;20031;-78
2021/04/15 03:17:26;;;;;;;1.55;0.20;;;3.10;99.90;;;;;;5089427;28;20513;-75
2021/04/15 03:20:01;;;;;;;1.38;0.20;;;3.10;99.90;;;;;;5107993;28;20055;-76
2021/04/15 03:22:33;;;;;;;0.57;0.10;;;3.10;99.90;;;;;;5106675;28;20054;-78
2021/04/15 03:25:01;;;;;;;0.98;0.20;;;3.00;99.90;;;;;;5089459;28;20020;-78
2021/04/15 03:27:32;;;;;;;0.60;0.20;;;3.00;99.90;;;;;;5072838;28;20047;-77
2021/04/15 03:30:05;;;;;;;0.90;0.30;;;3.10;99.90;;;;;;5107487;28;20039;-78
2021/04/15 03:32:55;;;;;;;0.93;0.10;;;3.10;99.90;;;;;;5107430;28;20043;-78
2021/04/15 03:35:30;;;;;;;0.32;0.10;;;3.10;99.90;;;;;;5107112;28;20020;-78
2021/04/15 03:38:09;;;;;;;1.00;0.10;;;3.10;99.90;;;;;;5107406;28;20032;-78
2021/04/15 03:40:38;;;;;;;0.47;0.10;;;3.20;99.90;;;;;;5107215;28;20059;-78
2021/04/15 03:43:10;;;;;;;1.20;0.20;;;3.20;99.90;;;;;;5107422;28;20039;-78
2021/04/15 03:46:03;;;;;;;0.68;0.10;;;3.20;99.90;;;;;;5107034;28;20042;-78
2021/04/15 03:48:35;;;;;;;1.10;0.10;;;3.20;99.90;;;;;;5071427;28;20040;-78
2021/04/15 03:51:07;;;;;;;1.20;0.10;;;3.20;99.90;;;;;;5088965;28;20043;-78
2021/04/15 03:53:39;;;;;;;1.10;0.10;;;3.20;99.90;;;;;;5072407;28;20074;-78
2021/04/15 03:56:21;;;;;;;1.15;0.10;;;3.20;99.90;;;;;;5088708;28;20503;-78
2021/04/15 03:58:53;;;;;;;0.85;0.10;;;3.20;99.90;;;;;;5106920;28;20024;-78
2021/04/15 04:01:23;;;;;;;0.32;0.10;;;3.20;99.90;;;;;;5106746;28;20024;-78
2021/04/15 04:04:06;;;;;;;0.88;0.10;;;3.20;99.90;;;;;;5106960;28;20448;-78
2021/04/15 04:06:38;;;;;;;0.70;0.20;;;3.20;99.90;;;;;;5076432;28;20131;-78
2021/04/15 04:09:13;;;;;;;1.45;0.20;;;3.20;99.90;;;;;;5088519;28;20034;-77
2021/04/15 04:11:41;;;;;;;1.48;0.10;;;3.20;99.90;;;;;;5106893;28;20028;-78
2021/04/15 04:14:15;;;;;;;0.60;0.20;;;3.20;99.90;;;;;;5088710;28;20038;-78
2021/04/15 04:16:46;;;;;;;1.25;0.10;;;3.10;99.90;;;;;;5084996;28;20044;-78
2021/04/15 04:19:22;;;;;;;0.45;0.10;;;3.10;99.90;;;;;;5065138;28;20041;-78
2021/04/15 04:22:09;;;;;;;0.40;0.10;;;3.00;99.90;;;;;;5080112;28;20046;-78
2021/04/15 04:25:17;;;;;;;0.40;0.10;;;3.00;99.90;;;;;;5085589;28;20057;-78
2021/04/15 04:27:52;;;;;;;0.80;0.20;;;3.00;99.90;;;;;;5049849;28;20032;-78
2021/04/15 04:30:26;;;;;;;1.50;0.20;;;3.00;99.90;;;;;;5106264;28;20107;-78
2021/04/15 04:32:57;;;;;;;0.57;0.10;;;3.00;99.90;;;;;;5105508;28;20093;-78
2021/04/15 04:35:24;;;;;;;;;;;3.00;99.90;;;;;;5088335;28;20067;-78
2021/04/15 04:37:52;;;;;;;0.80;0.30;;;3.00;99.90;;;;;;5071251;28;19915;-78
2021/04/15 04:40:31;;;;;;;0.77;0.20;;;3.00;99.90;;;;;;5071158;28;20036;-78
2021/04/15 04:43:04;;;;;;;3.13;0.20;;;3.00;99.90;;;;;;5071128;28;20031;-78
2021/04/15 04:45:29;;;;;;;0.90;0.13;;;3.00;99.90;;;;;;5105075;28;20031;-78
2021/04/15 04:48:22;;;;;;;0.98;0.30;;;3.10;99.90;;;;;;5087976;28;20039;-78
2021/04/15 04:51:03;;;;;;;2.55;0.30;;;3.10;99.90;;;;;;5106416;28;20031;-78
2021/04/15 04:53:37;;;;;;;0.68;0.17;;;3.10;99.90;;;;;;5106183;28;20047;-78
2021/04/15 04:56:23;;;;;;;1.50;0.30;;;3.10;99.90;;;;;;5105982;28;20071;-78
2021/04/15 04:59:01;;;;;;;0.75;0.20;;;3.20;99.90;;;;;;5087813;28;20024;-78
2021/04/15 05:01:27;;;;;;;3.42;0.30;;;3.20;99.90;;;;;;5106198;28;20024;-80
2021/04/15 05:04:00;;;;;;;1.45;0.20;;;3.20;99.90;;;;;;5094404;28;20029;-79
2021/04/15 05:06:31;;;;;;;1.20;0.20;;;3.30;99.90;;;;;;5098425;28;20044;-78
2021/04/15 05:09:22;;;;;;;1.77;0.30;;;3.30;99.90;;;;;;5104933;28;20031;-78
2021/04/15 05:11:49;;;;;;;1.10;0.25;;;3.30;99.90;;;;;;5105346;28;20029;-78
2021/04/15 05:14:19;;;;;;;2.03;0.30;;;3.30;99.90;;;;;;5087033;28;20032;-79
2021/04/15 05:16:55;;;;;;;2.10;0.30;;;3.30;99.90;;;;;;5069821;28;20067;-78
2021/04/15 05:19:21;;;;;;;1.55;0.30;;;3.40;99.90;;;;;;5058915;28;20080;-78
2021/04/15 05:21:49;;;;;;;1.00;0.25;;;3.40;99.90;;;;;;5086794;28;20100;-78
2021/04/15 05:24:44;;;;;;;2.38;0.30;;;3.50;99.90;;;;;;5053998;28;20275;-78
2021/04/15 05:27:12;;;;;;;2.22;0.40;;;3.40;99.90;;;;;;5095303;28;20044;-78
2021/04/15 05:29:41;;;;;;;2.50;0.30;;;3.50;99.90;;;;;;5093465;28;20032;-78
2021/04/15 05:32:11;;;;;;;1.67;0.40;;;3.50;99.90;;;;;;5092594;28;20028;-78
2021/04/15 05:34:56;;;;;;;1.50;0.47;;;3.50;99.90;;;;;;5073024;28;20310;-78
2021/04/15 05:37:25;;;;;;;1.80;0.55;;;3.50;99.90;;;;;;5078522;28;20036;-78
2021/04/15 05:39:52;;;;;;;2.42;0.60;;;3.50;99.90;;;;;;5092536;28;20032;-79
2021/04/15 05:42:28;;;;;;;5.75;0.40;;;3.50;99.90;;;;;;5065726;28;20028;-78
2021/04/15 05:44:59;;;;;;;6.80;0.50;;;3.50;99.90;;;;;;5099144;28;20379;-79
2021/04/15 05:47:51;;;;;;;2.58;0.50;;;3.50;99.90;;;;;;5076793;28;20036;-79
2021/04/15 05:50:31;;;;;;;1.98;0.30;;;3.50;99.90;;;;;;5076479;28;20032;-78
2021/04/15 05:53:00;;;;;;;3.80;0.30;;;3.50;99.90;;;;;;5082382;28;20024;-78
2021/04/15 05:55:34;;;;;;;0.93;0.28;;;3.50;99.90;;;;;;5084652;28;20043;-78
2021/04/15 05:58:07;;;;;;;1.63;0.20;;;3.60;99.90;;;;;;5102255;28;20040;-78
2021/04/15 06:00:39;;;;;;;1.60;0.28;;;3.60;99.90;;;;;;5094633;28;20024;-78
2021/04/15 06:03:26;;;;;;;2.92;0.30;;;3.70;99.90;;;;;;5077673;28;20033;-80
2021/04/15 06:06:10;;;;;;;0.85;0.22;;;3.70;99.90;;;;;;5098691;28;20040;-78
2021/04/15 06:08:42;;;;;;;1.70;0.40;;;3.80;99.90;;;;;;5077041;28;20040;-78
2021/04/15 06:11:14;;;;;;;3.65;0.30;;;3.80;99.90;;;;;;5081697;28;20120;-78
2021/04/15 06:13:48;;;;;;;2.67;0.22;;;3.90;99.90;;;;;;5084146;28;20028;-79
2021/04/15 06:16:23;;;;;;;3.17;0.30;;;4.00;99.90;;;;;;5080517;28;20045;-78
2021/04/15 06:19:20;;;;;;;0.70;0.20;;;4.20;99.90;;;;;;5101396;28;20036;-78
2021/04/15 06:21:50;;;;;;;2.80;0.30;;;4.20;99.90;;;;;;5067283;28;20044;-78
2021/04/15 06:24:27;;;;;;;1.52;0.35;;;4.20;99.90;;;;;;5033323;28;20037;-79
2021/04/15 06:26:55;;;;;;;4.32;0.30;;;4.30;99.90;;;;;;5033432;28;20035;-78
2021/04/15 06:29:46;;;;;;;1.98;0.20;;;4.40;99.90;;;;;;5067429;28;20112;-79
2021/04/15 06:32:27;;;;;;;1.92;0.30;;;4.50;99.90;;;;;;5049968;28;20025;-78
2021/04/15 06:34:57;;;;;;;2.35;0.30;;;4.40;99.90;;;;;;5049258;28;20032;-79
2021/04/15 06:37:43;;;;;;;4.38;0.40;;;4.70;99.90;;;;;;5066062;28;20060;-79
2021/04/15 06:40:47;;;;;;;2.10;0.40;;;4.90;99.90;;;;;;5049374;28;20035;-78
2021/04/15 06:43:31;;;;;;;1.73;0.30;;;5.10;99.90;;;;;;5009190;28;20044;-79
2021/04/15 06:46:02;;;;;;;1.58;0.30;;;5.10;99.90;;;;;;5065992;28;20037;-79
2021/04/15 06:49:06;;;;;;;6.13;0.63;;;5.10;99.90;;;;;;5049744;28;20133;-79
2021/04/15 06:51:58;;;;;;;3.08;0.50;;;4.60;99.90;;;;;;5049729;28;20037;-79
2021/04/15 06:54:45;;;;;;;3.53;0.47;;;4.70;99.90;;;;;;5049689;28;20037;-79
2021/04/15 06:57:22;;;;;;;2.17;0.47;;;4.60;99.90;;;;;;5032673;28;20067;-79
2021/04/15 07:00:13;;;;;;;2.50;0.45;;;4.70;99.90;;;;;;5066926;28;20036;-79
2021/04/15 07:03:09;;;;;;;1.38;0.50;;;5.00;99.90;;;;;;5067332;28;20473;-79
2021/04/15 07:08:41;;;;;;;1.90;0.40;;;5.50;99.90;;;;;;4986875;28;20106;-79
2021/04/15 07:11:23;;;;;;;2.47;0.43;;;5.80;99.90;;;;;;4971329;28;20105;-79
2021/04/15 07:17:31;;;;;;;3.30;0.68;;;5.80;99.90;;;;;;5073916;22;20060;-79
2021/04/15 07:20:38;;;;;;;1.63;0.40;;;5.80;99.90;;;;;;5065870;28;20033;-79
2021/04/15 07:23:24;;;;;;;1.73;0.40;;;6.00;99.90;;;;;;5066036;28;20121;-79
2021/04/15 07:25:55;;;;;;;1.35;0.50;;;6.30;99.90;;;;;;5066994;28;20087;-79
2021/04/15 07:28:52;;;;;;;1.52;0.50;;;6.30;99.90;;;;;;5048961;28;20098;-77
2021/04/15 07:31:36;;;;;;;1.08;0.30;;;6.30;99.90;;;;;;5067018;28;20108;-77
2021/04/15 07:34:27;;;;;;;3.88;0.38;;;6.40;99.90;;;;;;5049016;28;20135;-79
2021/04/15 07:37:13;;;;;;;1.92;0.40;;;6.30;99.90;;;;;;5066672;28;20087;-79
2021/04/15 07:40:06;;;;;;;4.22;0.40;;;6.40;99.90;;;;;;5048405;28;20036;-79
2021/04/15 07:42:53;;;;;;;2.45;0.50;;;6.20;99.90;;;;;;5066463;28;20092;-79
2021/04/15 07:45:44;;;;;;;2.35;0.40;;;6.00;99.90;;;;;;5048174;28;20028;-79
2021/04/15 07:48:38;;;;;;;1.80;0.50;;;6.40;99.90;;;;;;5065069;28;20536;-79
2021/04/15 07:51:39;;;;;;;2.55;0.50;;;6.20;99.90;;;;;;5048178;28;20041;-79
2021/04/15 07:54:26;;;;;;;2.03;0.60;;;6.40;99.90;;;;;;5048178;28;20059;-79
2021/04/15 07:57:14;;;;;;;1.90;0.52;;;6.40;99.90;;;;;;5065186;28;20504;-79
2021/04/15 08:00:01;;;;;;;2.50;0.50;;;6.30;99.90;;;;;;5048035;28;20033;-79
2021/04/15 08:02:30;;;;;;;2.45;0.40;;;6.30;99.90;;;;;;5048210;28;20086;-79
2021/04/15 08:05:38;;;;;;;1.58;0.30;;;6.50;99.90;;;;;;5047727;28;20028;-79
2021/04/15 08:08:23;;;;;;;1.15;0.40;;;6.20;99.90;;;;;;4964719;28;20047;-79
2021/04/15 08:11:23;;;;;;;2.28;0.40;;;6.40;99.90;;;;;;4950049;29;20027;-79
2021/04/15 08:14:29;;;;;;;2.22;0.40;;;6.50;99.90;;;;;;4950401;29;20407;-79
2021/04/15 08:17:09;;;;;;;1.60;0.30;;;6.60;99.90;;;;;;4950078;29;20150;-79
2021/04/15 08:19:59;;;;;;;1.92;0.30;;;6.80;99.90;;;;;;4949452;29;20043;-79
2021/04/15 08:23:10;;;;;;;2.33;0.30;;;6.80;99.90;;;;;;4933320;29;20115;-77
2021/04/15 08:25:44;;;;;;;1.15;0.30;;;6.90;99.90;;;;;;4965003;29;20058;-77
2021/04/15 08:28:22;;;;;;;1.52;0.30;;;6.90;99.90;;;;;;4948964;29;20067;-77
2021/04/15 08:31:08;;;;;;;1.27;0.20;;;7.00;99.90;;;;;;4964964;29;20031;-77
2021/04/15 08:33:46;;;;;;;1.85;0.22;;;7.20;99.90;;;;;;4958235;29;20043;-77
2021/04/15 08:36:29;;;;;;;1.05;0.20;;;7.10;99.90;;;;;;4964724;29;20429;-77
2021/04/15 08:39:10;;;;;;;1.33;0.35;;;6.80;99.90;;;;;;4964805;29;20051;-77
2021/04/15 08:42:09;;;;;;;1.92;0.38;;;6.90;99.90;;;;;;4948744;29;20084;-78
2021/04/15 08:44:56;;;;;;;1.95;0.95;;;7.10;99.90;;;;;;4980574;28;20067;-79
2021/04/15 08:47:49;;;;;;;4.15;0.35;;;6.60;99.90;;;;;;5027646;28;20037;-79
2021/04/15 08:50:24;;;;;;;1.20;0.30;;;6.60;99.90;;;;;;5011331;28;20029;-79
2021/04/15 08:53:08;;;;;;;0.98;0.20;;;6.60;99.90;;;;;;5045459;28;20029;-79
2021/04/15 08:55:47;;;;;;;0.77;0.20;;;6.70;99.90;;;;;;5027417;28;20092;-79
2021/04/15 08:58:37;;;;;;;1.02;0.20;;;6.90;99.90;;;;;;5027568;28;20048;-79
2021/04/15 09:01:33;;;;;;;0.93;0.20;;;6.80;99.90;;;;;;5027464;28;20393;-79
2021/04/15 09:04:13;;;;;;;0.85;0.30;;;7.00;99.90;;;;;;5027436;28;20037;-79
2021/04/15 09:06:43;;;;;;;0.80;0.20;;;6.70;99.90;;;;;;5036017;28;20056;-77
2021/04/15 09:09:24;;;;;;;2.63;0.20;;;6.90;99.90;;;;;;5046815;28;20067;-77
2021/04/15 09:12:21;;;;;;;1.00;0.28;;;7.00;99.90;;;;;;5046971;28;20033;-77
2021/04/15 09:15:17;;;;;;;0.80;0.20;;;7.40;99.90;;;;;;5030230;28;20044;-77
2021/04/15 09:17:55;;;;;;;0.60;0.20;;;7.40;99.90;;;;;;5030314;28;20044;-77
2021/04/15 09:20:46;;;;;;;1.80;0.20;;;7.60;99.90;;;;;;5046237;28;20032;-77
2021/04/15 09:23:45;;;;;;;1.20;0.20;;;8.00;99.90;;;;;;5030460;28;20472;-77
2021/04/15 09:26:45;;;;;;;0.70;0.10;;;8.30;99.90;;;;;;5030476;28;20028;-77
2021/04/15 09:29:37;;;;;;;0.70;0.10;;;8.20;99.90;;;;;;5064844;28;20366;-77
2021/04/15 09:32:15;;;;;;;0.57;0.13;;;8.10;99.90;;;;;;5046821;28;20049;-77
2021/04/15 09:35:12;;;;;;;0.73;0.20;;;7.90;99.90;;;;;;5030122;28;20037;-77
2021/04/15 09:38:02;;;;;;;2.22;0.10;;;7.70;99.90;;;;;;5046522;28;20071;-77
2021/04/15 09:40:52;;;;;;;0.55;0.17;;;7.60;99.90;;;;;;5064600;28;20021;-77
2021/04/15 09:43:42;;;;;;;0.93;0.10;;;7.50;99.90;;;;;;5030292;28;20037;-77
2021/04/15 09:46:31;;;;;;;1.38;0.10;;;7.90;99.90;;;;;;5046675;28;20037;-77
2021/04/15 09:48:59;;;;;;;0.80;0.13;;;8.60;99.90;;;;;;5046620;28;20025;-77
2021/04/15 09:51:39;;;;;;;0.65;0.20;;;8.90;99.90;;;;;;5030054;28;20029;-77
2021/04/15 09:54:35;;;;;;;1.95;0.20;;;9.00;99.90;;;;;;5046579;28;20060;-77
2021/04/15 09:57:22;;;;;;;1.48;0.10;;;8.90;99.90;;;;;;5029857;28;20045;-77
2021/04/15 10:00:16;;;;;;;0.68;0.20;;;8.70;99.90;;;;;;5029746;28;20040;-77
2021/04/15 10:03:09;;;;;;;1.00;0.10;;;8.80;99.90;;;;;;5046525;28;20091;-77
2021/04/15 10:06:00;;;;;;;0.25;0.10;;;8.90;99.90;;;;;;5029716;28;20108;-77
2021/04/15 10:08:44;;;;;;;0.20;0.10;;;8.50;99.90;;;;;;5029743;28;20039;-77
2021/04/15 10:11:23;;;;;;;0.73;0.20;;;8.40;99.90;;;;;;5064446;28;20477;-77
2021/04/15 10:14:20;;;;;;;0.30;0.10;;;8.40;99.90;;;;;;5030005;28;20119;-77
2021/04/15 10:16:50;;;;;;;1.45;0.20;;;8.10;99.90;;;;;;5061656;28;20059;-77
2021/04/15 10:19:55;;;;;;;0.57;0.20;;;8.20;99.90;;;;;;5046142;28;20040;-77
2021/04/15 10:22:36;;;;;;;1.45;0.20;;;8.60;99.90;;;;;;5045968;28;20283;-77
2021/04/15 10:25:17;;;;;;;0.68;0.20;;;8.90;99.90;;;;;;5064382;28;20029;-77
2021/04/15 10:28:22;;;;;;;1.05;0.30;;;8.90;99.90;;;;;;5029481;28;20032;-77
2021/04/15 10:31:13;;;;;;;0.95;0.30;;;8.80;99.90;;;;;;5030538;28;20083;-77
2021/04/15 10:34:03;;;;;;;1.52;0.20;;;8.90;99.90;;;;;;5033324;28;20035;-77
2021/04/15 10:36:52;;;;;;;0.77;0.20;;;9.00;99.90;;;;;;5049191;28;20477;-78
2021/04/15 10:39:30;;;;;;;0.82;0.30;;;8.90;99.90;;;;;;5049629;28;20036;-77
2021/04/15 10:42:26;;;;;;;1.60;0.30;;;8.90;99.90;;;;;;5067314;28;20040;-77
2021/04/15 10:45:07;;;;;;;0.88;0.30;;;9.30;99.90;;;;;;5049550;28;20063;-78
2021/04/15 10:47:57;;;;;;;2.00;0.30;;;8.80;99.90;;;;;;5049509;28;20057;-77
2021/04/15 10:50:35;;;;;;;0.95;0.30;;;8.60;99.90;;;;;;5033000;28;20064;-78
2021/04/15 10:53:03;;;;;;;1.42;0.30;;;8.50;99.90;;;;;;5067468;28;20025;-78
2021/04/15 10:55:32;;;;;;;1.23;0.40;;;8.50;99.90;;;;;;5049038;28;20029;-78
2021/04/15 10:58:31;;;;;;;1.20;0.40;;;8.70;99.90;;;;;;5050829;28;20061;-77
2021/04/15 11:01:15;;;;;;;1.23;0.30;;;9.80;99.90;;;;;;5032851;28;20067;-78
2021/04/15 11:03:41;;;;;;;1.00;0.40;;;10.70;99.90;;;;;;5047735;28;20035;-78
2021/04/15 11:06:10;;;;;;;2.47;0.45;;;10.80;99.90;;;;;;5048662;28;20021;-78
2021/04/15 11:08:36;;;;;;;1.23;0.50;;;9.40;99.90;;;;;;5049063;28;20036;-78
2021/04/15 11:11:18;;;;;;;1.35;0.30;;;9.40;99.90;;;;;;5049039;28;20063;-78
2021/04/15 11:13:45;;;;;;;4.47;0.60;;;9.40;99.90;;;;;;5049015;28;20033;-78
2021/04/15 11:16:19;;;;;;;1.13;0.40;;;8.80;99.90;;;;;;5048822;28;20059;-78
2021/04/15 11:18:45;;;;;;;2.63;0.40;;;9.00;99.90;;;;;;5048759;28;20040;-78
2021/04/15 11:21:20;;;;;;;2.55;0.43;;;9.10;99.90;;;;;;5049048;28;20088;-77
2021/04/15 11:23:47;;;;;;;0.77;0.30;;;9.50;99.90;;;;;;5066820;28;20481;-77
2021/04/15 11:26:21;;;;;;;1.98;0.40;;;9.90;99.90;;;;;;5048960;28;20025;-78
2021/04/15 11:28:48;;;;;;;1.45;0.30;;;9.70;99.90;;;;;;5072584;28;20024;-78
2021/04/15 11:31:14;;;;;;;0.80;0.30;;;10.10;99.90;;;;;;5055517;28;20477;-78
2021/04/15 11:33:46;;;;;;;0.90;0.30;;;10.70;99.90;;;;;;5067021;28;20062;-78
2021/04/15 11:36:28;;;;;;;1.05;0.30;;;10.50;99.90;;;;;;5048721;28;20136;-78
2021/04/15 11:39:21;;;;;;;0.90;0.30;;;10.80;99.90;;;;;;5031711;28;20024;-78
2021/04/15 11:41:47;;;;;;;1.13;0.30;;;10.60;99.90;;;;;;5031536;28;20100;-78
2021/04/15 11:44:28;;;;;;;1.02;0.30;;;10.70;99.90;;;;;;5048211;28;20040;-78
2021/04/15 11:46:57;;;;;;;1.45;0.40;;;11.30;99.90;;;;;;5065290;28;20033;-78
2021/04/15 11:49:38;;;;;;;1.80;0.40;;;11.10;99.90;;;;;;5066194;28;20259;-78
2021/04/15 11:52:19;;;;;;;1.40;0.30;;;10.60;99.90;;;;;;5032113;28;20040;-78
2021/04/15 11:55:06;;;;;;;1.88;0.40;;;11.00;99.90;;;;;;5064903;28;20036;-78
2021/04/15 11:57:41;;;;;;;1.55;0.52;;;11.10;99.90;;;;;;5031495;28;20068;-78
2021/04/15 12:00:20;;;;;;;2.20;0.40;;;10.40;99.90;;;;;;5048013;28;20056;-78
2021/04/15 12:02:55;;;;;;;1.73;0.50;;;10.20;99.90;;;;;;5048072;28;20028;-78
2021/04/15 12:05:32;;;;;;;0.90;0.30;;;9.70;99.90;;;;;;5040927;28;20029;-77
2021/04/15 12:08:22;;;;;;;0.63;0.20;;;10.70;99.90;;;;;;5045719;28;20037;-78
2021/04/15 12:11:01;;;;;;;1.13;0.40;;;11.20;99.90;;;;;;5045977;28;20029;-78
2021/04/15 12:13:30;;;;;;;1.08;0.40;;;11.10;99.90;;;;;;5011823;28;20037;-78
2021/04/15 12:16:14;;;;;;;1.02;0.32;;;10.70;99.90;;;;;;5045538;28;20060;-78
2021/04/15 12:18:47;;;;;;;1.35;0.40;;;10.50;99.90;;;;;;5045542;28;20076;-78
2021/04/15 12:21:40;;;;;;;1.88;0.40;;;10.50;99.90;;;;;;5011430;28;20029;-78
2021/04/15 12:24:34;;;;;;;1.23;0.40;;;10.70;99.90;;;;;;5027678;28;20048;-78
2021/04/15 12:27:05;;;;;;;1.88;0.40;;;10.90;99.90;;;;;;5022190;28;20084;-78
2021/04/15 12:29:41;;;;;;;1.52;0.40;;;10.70;99.90;;;;;;5027400;28;20029;-78
2021/04/15 12:32:32;;;;;;;0.85;0.30;;;10.80;99.90;;;;;;5045915;28;20026;-78
2021/04/15 12:35:14;;;;;;;3.65;0.30;;;10.90;99.90;;;;;;5027619;28;20034;-78
2021/04/15 12:37:48;;;;;;;0.90;0.30;;;11.80;99.90;;;;;;5010928;28;20128;-78
2021/04/15 12:40:36;;;;;;;0.85;0.32;;;11.80;98.70;;;;;;5045126;28;20053;-79
2021/04/15 12:43:06;;;;;;;1.05;0.32;;;11.20;99.50;;;;;;5045165;28;20078;-78
2021/04/15 12:45:55;;;;;;;1.85;0.30;;;11.50;99.90;;;;;;5045258;28;20025;-78
2021/04/15 12:48:29;;;;;;;1.30;0.32;;;11.30;97.30;;;;;;5027280;28;20080;-78
2021/04/15 12:50:56;;;;;;;2.45;0.40;;;11.10;99.90;;;;;;5010954;28;20089;-78
2021/04/15 12:53:22;;;;;;;2.40;0.68;;;10.90;99.90;;;;;;5027335;28;20092;-78
2021/04/15 12:55:51;;;;;;;2.10;0.70;;;10.80;99.90;;;;;;5027126;28;20037;-78
2021/04/15 12:58:18;;;;;;;2.17;0.80;;;10.40;99.90;;;;;;5026990;28;20033;-78
2021/04/15 13:00:47;;;;;;;4.00;0.90;;;10.00;99.90;;;;;;5027364;28;20041;-78
2021/04/15 13:03:22;;;;;;;4.45;0.93;;;9.80;99.90;;;;;;5027447;28;20026;-78
2021/04/15 13:06:06;;;;;;;6.47;1.33;;;10.20;99.90;;;;;;5027397;28;20539;-78
2021/04/15 13:08:38;;;;;;;3.45;0.70;;;11.00;98.60;;;;;;5043051;28;20043;-77
2021/04/15 13:11:26;;;;;;;2.28;0.40;;;11.80;97.30;;;;;;5064607;28;20029;-77
2021/04/15 13:14:00;;;;;;;2.95;0.40;;;11.70;96.20;;;;;;5046551;28;20080;-77
2021/04/15 13:16:35;;;;;;;1.00;0.30;;;11.40;96.60;;;;;;5064274;28;20048;-78
2021/04/15 13:19:10;;;;;;;1.42;0.30;;;10.90;93.90;;;;;;5062633;28;20105;-77
2021/04/15 13:21:41;;;;;;;1.67;0.40;;;10.80;96.80;;;;;;5046073;28;20111;-78
2021/04/15 13:24:44;;;;;;;2.03;0.50;;;10.40;97.00;;;;;;5046217;28;20171;-77
2021/04/15 13:27:32;;;;;;;0.80;0.30;;;9.90;97.50;;;;;;5046489;28;20072;-77
2021/04/15 13:30:19;;;;;;;1.33;0.20;;;10.10;97.80;;;;;;5064467;28;20107;-77
2021/04/15 13:33:09;;;;;;;3.63;0.30;;;10.30;98.40;;;;;;5029879;28;20036;-77
2021/04/15 13:36:14;;;;;;;0.40;0.20;;;10.20;96.90;;;;;;5046394;28;20033;-77
2021/04/15 13:38:59;;;;;;;0.95;0.28;;;10.00;96.50;;;;;;5046592;28;20159;-78
2021/04/15 13:41:24;;;;;;;0.77;0.20;;;9.90;99.90;;;;;;5029995;28;20477;-78
2021/04/15 13:43:59;;;;;;;1.20;0.25;;;9.80;97.10;;;;;;5046409;28;20032;-78
2021/04/15 13:46:31;;;;;;;1.35;0.40;;;10.30;98.00;;;;;;5029862;28;20064;-78
2021/04/15 13:49:24;;;;;;;2.47;0.20;;;10.70;97.10;;;;;;5062796;28;20029;-78
2021/04/15 13:51:49;;;;;;;2.70;0.40;;;11.40;94.30;;;;;;5016355;28;20147;-78
2021/04/15 13:54:23;;;;;;;1.63;0.30;;;11.60;93.60;;;;;;5064257;28;20503;-78
2021/04/15 13:59:33;;;;;;;0.88;0.20;;;11.40;91.10;;;;;;5046149;28;20029;-78
2021/04/15 14:02:05;;;;;;;0.73;0.30;;;11.30;92.50;;;;;;5062646;28;20037;-78
2021/04/15 14:04:42;;;;;;;0.88;0.20;;;11.00;92.50;;;;;;5060661;28;20036;-77
2021/04/15 14:07:38;;;;;;;0.65;0.20;;;11.60;94.10;;;;;;5029694;28;20033;-78